Time;durP1;ratioP1;P1;durP2;ratioP2;P2;SDS_P1;SDS_P2;PMS_P1;PMS_P2;Temp;Humidity;BMP_temperature;BMP_pressure;BME280_temperature;BME280_humidity;BME280_pressure;Samples;Min_cycle;Max_cycle;Signal;HPM_P1;HPM_P2
2024/04/18 00:00:38;;;;;;;;;;;;;;;;;;5515117;25;57987;-75
2024/04/18 00:03:03;;;;;;;;;;;;;;;;;;5514758;25;57565;-75
2024/04/18 00:05:28;;;;;;;;;;;;;;;;;;5515241;25;57294;-75
2024/04/18 00:07:53;;;;;;;;;;;;;;;;;;5514633;25;57498;-76
2024/04/18 00:10:18;;;;;;;;;;;;;;;;;;5507788;25;57214;-75
2024/04/18 00:12:43;;;;;;;;;;;;;;;;;;5515014;25;57367;-75
2024/04/18 00:15:08;;;;;;;;;;;;;;;;;;5480558;25;59665;-75
2024/04/18 00:17:33;;;;;;;;;;;;;;;;;;5514006;25;56704;-75
2024/04/18 00:19:58;;;;;;;;;;;;;;;;;;5514855;25;57979;-75
2024/04/18 00:22:23;;;;;;;;;;;;;;;;;;5513968;25;57705;-74
2024/04/18 00:24:49;;;;;;;;;;;;;;;;;;5515213;25;56787;-75
2024/04/18 00:27:14;;;;;;;;;;;;;;;;;;5514720;25;58030;-75
2024/04/18 00:29:39;;;;;;;;;;;;;;;;;;5513663;25;56868;-75
2024/04/18 00:32:04;;;;;;;;;;;;;;;;;;5511937;25;57973;-75
2024/04/18 00:34:29;;;;;;;;;;;;;;;;;;5514685;25;57736;-75
2024/04/18 00:36:54;;;;;;;;;;;;;;;;;;5513534;25;56774;-75
2024/04/18 00:39:19;;;;;;;;;;;;;;;;;;5514288;25;57168;-75
2024/04/18 00:41:44;;;;;;;;;;;;;;;;;;5511309;25;57379;-75
2024/04/18 00:44:09;;;;;;;;;;;;;;;;;;5515822;25;56814;-75
2024/04/18 00:46:34;;;;;;;;;;;;;;;;;;5511837;25;58263;-75
2024/04/18 00:48:59;;;;;;;;;;;;;;;;;;5514290;25;56840;-74
2024/04/18 00:51:24;;;;;;;;;;;;;;;;;;5513095;25;58327;-75
2024/04/18 00:53:49;;;;;;;;;;;;;;;;;;5512264;25;57689;-75
2024/04/18 00:56:14;;;;;;;;;;;;;;;;;;5512457;25;56770;-74
2024/04/18 00:58:39;;;;;;;;;;;;;;;;;;5513638;25;58850;-74
2024/04/18 01:01:05;;;;;;;;;;;;;;;;;;5513886;25;57754;-74
2024/04/18 01:03:30;;;;;;;;;;;;;;;;;;5512586;25;57221;-74
2024/04/18 01:05:55;;;;;;;;;;;;;;;;;;5511517;25;57442;-74
2024/04/18 01:08:20;;;;;;;;;;;;;;;;;;5510696;25;57559;-74
2024/04/18 01:10:45;;;;;;;;;;;;;;;;;;5511870;25;57537;-74
2024/04/18 01:13:10;;;;;;;;;;;;;;;;;;5509442;25;57059;-74
2024/04/18 01:15:35;;;;;;;;;;;;;;;;;;5513651;25;56751;-73
2024/04/18 01:18:00;;;;;;;;;;;;;;;;;;5511518;25;57962;-74
2024/04/18 01:20:25;;;;;;;;;;;;;;;;;;5513381;25;58594;-74
2024/04/18 01:22:50;;;;;;;;;;;;;;;;;;5509403;25;56842;-73
2024/04/18 01:25:15;;;;;;;;;;;;;;;;;;5476363;25;58514;-74
2024/04/18 01:27:40;;;;;;;;;;;;;;;;;;5510166;25;58789;-74
2024/04/18 01:30:05;;;;;;;;;;;;;;;;;;5512114;25;56947;-74
2024/04/18 01:32:30;;;;;;;;;;;;;;;;;;5513309;25;57940;-74
2024/04/18 01:34:56;;;;;;;;;;;;;;;;;;5480660;25;56806;-74
2024/04/18 01:37:21;;;;;;;;;;;;;;;;;;5514436;25;58053;-74
2024/04/18 01:39:46;;;;;;;;;;;;;;;;;;5510795;25;56812;-73
2024/04/18 01:42:11;;;;;;;;;;;;;;;;;;5512155;25;56831;-73
2024/04/18 01:44:36;;;;;;;;;;;;;;;;;;5512837;25;57997;-74
2024/04/18 01:47:01;;;;;;;;;;;;;;;;;;5509085;25;59473;-74
2024/04/18 01:49:26;;;;;;;;;;;;;;;;;;5511881;25;56754;-74
2024/04/18 01:51:51;;;;;;;;;;;;;;;;;;5510692;25;57988;-74
2024/04/18 01:54:16;;;;;;;;;;;;;;;;;;5509325;25;56758;-74
2024/04/18 01:56:41;;;;;;;;;;;;;;;;;;5512625;25;57251;-74
2024/04/18 01:59:06;;;;;;;;;;;;;;;;;;5513758;25;57677;-74
2024/04/18 02:01:32;;;;;;;;;;;;;;;;;;5512586;25;57208;-74
2024/04/18 02:03:57;;;;;;;;;;;;;;;;;;5516320;25;58095;-74
2024/04/18 02:06:22;;;;;;;;;;;;;;;;;;5516464;25;57911;-74
2024/04/18 02:08:47;;;;;;;;;;;;;;;;;;5513520;25;56887;-73
2024/04/18 02:11:12;;;;;;;;;;;;;;;;;;5515409;25;56953;-74
2024/04/18 02:13:38;;;;;;;;;;;;;;;;;;5512193;25;56936;-74
2024/04/18 02:16:03;;;;;;;;;;;;;;;;;;5520882;25;58451;-74
2024/04/18 02:18:28;;;;;;;;;;;;;;;;;;5514539;25;57630;-74
2024/04/18 02:20:53;;;;;;;;;;;;;;;;;;5516101;25;56854;-74
2024/04/18 02:23:22;;;;;;;;;;;;;;;;;;5512398;25;58732;-73
2024/04/18 02:25:47;;;;;;;;;;;;;;;;;;5512809;25;57696;-74
2024/04/18 02:28:12;;;;;;;;;;;;;;;;;;5514198;25;57757;-74
2024/04/18 02:30:37;;;;;;;;;;;;;;;;;;5515036;25;57004;-74
2024/04/18 02:33:02;;;;;;;;;;;;;;;;;;5513460;25;56927;-74
2024/04/18 02:35:28;;;;;;;;;;;;;;;;;;5513343;25;57256;-73
2024/04/18 02:37:53;;;;;;;;;;;;;;;;;;5515192;25;56863;-74
2024/04/18 02:40:18;;;;;;;;;;;;;;;;;;5513806;25;57330;-74
2024/04/18 02:42:43;;;;;;;;;;;;;;;;;;5513473;25;57957;-74
2024/04/18 02:45:08;;;;;;;;;;;;;;;;;;5511667;25;58108;-73
2024/04/18 02:47:33;;;;;;;;;;;;;;;;;;5512502;25;57761;-74
2024/04/18 02:49:58;;;;;;;;;;;;;;;;;;5513285;25;59567;-73
2024/04/18 02:52:23;;;;;;;;;;;;;;;;;;5514123;25;58529;-74
2024/04/18 02:54:48;;;;;;;;;;;;;;;;;;5515706;25;56856;-74
2024/04/18 02:57:13;;;;;;;;;;;;;;;;;;5512133;25;57932;-74
2024/04/18 02:59:38;;;;;;;;;;;;;;;;;;5511008;25;56756;-74
2024/04/18 03:02:05;;;;;;;;;;;;;;;;;;5512145;25;57837;-74
2024/04/18 03:04:31;;;;;;;;;;;;;;;;;;5513479;25;57689;-73
2024/04/18 03:06:56;;;;;;;;;;;;;;;;;;5513307;25;56922;-74
2024/04/18 03:09:21;;;;;;;;;;;;;;;;;;5512657;25;57946;-74
2024/04/18 03:11:46;;;;;;;;;;;;;;;;;;5509171;25;57121;-74
2024/04/18 03:14:11;;;;;;;;;;;;;;;;;;5511130;25;56640;-74
2024/04/18 03:16:37;;;;;;;;;;;;;;;;;;5515517;25;58106;-75
2024/04/18 03:19:02;;;;;;;;;;;;;;;;;;5483671;25;56862;-75
2024/04/18 03:21:27;;;;;;;;;;;;;;;;;;5513577;25;56827;-75
2024/04/18 03:23:52;;;;;;;;;;;;;;;;;;5514234;25;56885;-75
2024/04/18 03:26:17;;;;;;;;;;;;;;;;;;5514205;25;57107;-75
2024/04/18 03:28:42;;;;;;;;;;;;;;;;;;5513166;25;57859;-76
2024/04/18 03:31:07;;;;;;;;;;;;;;;;;;5514721;25;57692;-75
2024/04/18 03:33:33;;;;;;;;;;;;;;;;;;5509226;25;56676;-75
2024/04/18 03:35:58;;;;;;;;;;;;;;;;;;5513939;25;58051;-75
2024/04/18 03:38:23;;;;;;;;;;;;;;;;;;5514580;25;57732;-75
2024/04/18 03:40:49;;;;;;;;;;;;;;;;;;5512062;25;57877;-75
2024/04/18 03:43:14;;;;;;;;;;;;;;;;;;5514093;25;57543;-75
2024/04/18 03:45:39;;;;;;;;;;;;;;;;;;5515671;25;56945;-74
2024/04/18 03:48:04;;;;;;;;;;;;;;;;;;5515566;25;57117;-74
2024/04/18 03:50:29;;;;;;;;;;;;;;;;;;5512556;25;57716;-75
2024/04/18 03:52:54;;;;;;;;;;;;;;;;;;5513264;25;56843;-76
2024/04/18 03:55:19;;;;;;;;;;;;;;;;;;5512905;25;57293;-75
2024/04/18 03:57:44;;;;;;;;;;;;;;;;;;5513951;25;56869;-75
2024/04/18 04:00:09;;;;;;;;;;;;;;;;;;5483759;25;57026;-75
2024/04/18 04:02:34;;;;;;;;;;;;;;;;;;5513333;25;57623;-75
2024/04/18 04:04:59;;;;;;;;;;;;;;;;;;5512957;25;57126;-75
2024/04/18 04:07:24;;;;;;;;;;;;;;;;;;5512510;25;57926;-74
2024/04/18 04:09:49;;;;;;;;;;;;;;;;;;5511032;25;57652;-75
2024/04/18 04:12:15;;;;;;;;;;;;;;;;;;5514045;25;56848;-75
2024/04/18 04:14:40;;;;;;;;;;;;;;;;;;5515696;25;57342;-75
2024/04/18 04:17:05;;;;;;;;;;;;;;;;;;5513205;25;57916;-75
2024/04/18 04:19:30;;;;;;;;;;;;;;;;;;5510226;25;56787;-75
2024/04/18 04:21:55;;;;;;;;;;;;;;;;;;5513254;25;57568;-75
2024/04/18 04:24:20;;;;;;;;;;;;;;;;;;5511884;25;56906;-74
2024/04/18 04:26:45;;;;;;;;;;;;;;;;;;5510168;25;58277;-75
2024/04/18 04:29:10;;;;;;;;;;;;;;;;;;5481396;25;58493;-75
2024/04/18 04:31:35;;;;;;;;;;;;;;;;;;5511508;25;57495;-75
2024/04/18 04:34:00;;;;;;;;;;;;;;;;;;5482802;25;58120;-75
2024/04/18 04:36:26;;;;;;;;;;;;;;;;;;5513373;25;56752;-74
2024/04/18 04:38:51;;;;;;;;;;;;;;;;;;5513599;25;57032;-74
2024/04/18 04:41:16;;;;;;;;;;;;;;;;;;5512098;25;58081;-74
2024/04/18 04:43:41;;;;;;;;;;;;;;;;;;5514985;25;56848;-74
2024/04/18 04:46:06;;;;;;;;;;;;;;;;;;5513849;25;57846;-74
2024/04/18 04:48:31;;;;;;;;;;;;;;;;;;5514037;25;57652;-74
2024/04/18 04:51:00;;;;;;;;;;;;;;;;;;5512328;25;56681;-74
2024/04/18 04:53:25;;;;;;;;;;;;;;;;;;5510728;25;57951;-74
2024/04/18 04:55:50;;;;;;;;;;;;;;;;;;5509516;25;58498;-73
2024/04/18 04:58:15;;;;;;;;;;;;;;;;;;5513703;25;56791;-74
2024/04/18 05:00:40;;;;;;;;;;;;;;;;;;5512985;25;57812;-74
2024/04/18 05:03:05;;;;;;;;;;;;;;;;;;5509920;25;57108;-74
2024/04/18 05:05:30;;;;;;;;;;;;;;;;;;5509968;25;58299;-73
2024/04/18 05:07:55;;;;;;;;;;;;;;;;;;5510128;25;57625;-74
2024/04/18 05:10:20;;;;;;;;;;;;;;;;;;5509772;25;56863;-73
2024/04/18 05:12:45;;;;;;;;;;;;;;;;;;5513582;25;57913;-75
2024/04/18 05:15:11;;;;;;;;;;;;;;;;;;5513051;25;58539;-77
2024/04/18 05:17:36;;;;;;;;;;;;;;;;;;5511879;25;57260;-76
2024/04/18 05:20:01;;;;;;;;;;;;;;;;;;5510619;25;58168;-74
2024/04/18 05:22:26;;;;;;;;;;;;;;;;;;5511683;25;57518;-75
2024/04/18 05:24:51;;;;;;;;;;;;;;;;;;5512419;25;56797;-74
2024/04/18 05:27:16;;;;;;;;;;;;;;;;;;5511576;25;57604;-76
2024/04/18 05:32:26;;;;;;;;;;;;;;;;;;5512948;25;56881;-74
2024/04/18 05:34:51;;;;;;;;;;;;;;;;;;5511932;25;59259;-75
2024/04/18 05:37:16;;;;;;;;;;;;;;;;;;5511789;25;56941;-75
2024/04/18 05:39:41;;;;;;;;;;;;;;;;;;5508008;25;57151;-75
2024/04/18 05:42:06;;;;;;;;;;;;;;;;;;5513728;25;57666;-75
2024/04/18 05:44:31;;;;;;;;;;;;;;;;;;5513340;25;56817;-75
2024/04/18 05:46:56;;;;;;;;;;;;;;;;;;5512302;25;56931;-75
2024/04/18 05:49:22;;;;;;;;;;;;;;;;;;5514531;25;56727;-75
2024/04/18 05:51:47;;;;;;;;;;;;;;;;;;5513513;25;58798;-73
2024/04/18 05:54:12;;;;;;;;;;;;;;;;;;5510475;25;58358;-74
2024/04/18 05:56:37;;;;;;;;;;;;;;;;;;5515088;25;56880;-73
2024/04/18 05:59:03;;;;;;;;;;;;;;;;;;5514619;25;57332;-73
2024/04/18 06:01:28;;;;;;;;;;;;;;;;;;5515640;25;56872;-74
2024/04/18 06:03:53;;;;;;;;;;;;;;;;;;5514954;25;56697;-74
2024/04/18 06:06:18;;;;;;;;;;;;;;;;;;5514566;25;58868;-75
2024/04/18 06:08:43;;;;;;;;;;;;;;;;;;5514138;25;56842;-74
2024/04/18 06:11:08;;;;;;;;;;;;;;;;;;5516419;25;58957;-75
2024/04/18 06:13:36;;;;;;;;;;;;;;;;;;5512143;25;57540;-75
2024/04/18 06:16:01;;;;;;;;;;;;;;;;;;5512974;25;56869;-75
2024/04/18 06:18:29;;;;;;;;;;;;;;;;;;5509243;25;57910;-72
2024/04/18 06:20:54;;;;;;;;;;;;;;;;;;5511900;25;57713;-73
2024/04/18 06:23:19;;;;;;;;;;;;;;;;;;5512933;25;56826;-72
2024/04/18 06:25:44;;;;;;;;;;;;;;;;;;5513366;25;57849;-71
2024/04/18 06:28:09;;;;;;;;;;;;;;;;;;5512137;25;57646;-72
2024/04/18 06:30:35;;;;;;;;;;;;;;;;;;5513417;25;58259;-72
2024/04/18 06:33:00;;;;;;;;;;;;;;;;;;5512864;25;57702;-71
2024/04/18 06:35:25;;;;;;;;;;;;;;;;;;5515678;25;56716;-72
2024/04/18 06:37:50;;;;;;;;;;;;;;;;;;5513335;25;57722;-71
2024/04/18 06:40:15;;;;;;;;;;;;;;;;;;5515499;25;57692;-71
2024/04/18 06:42:40;;;;;;;;;;;;;;;;;;5513028;25;56686;-71
2024/04/18 06:45:05;;;;;;;;;;;;;;;;;;5512852;25;58056;-71
2024/04/18 06:47:30;;;;;;;;;;;;;;;;;;5514440;25;57680;-71
2024/04/18 06:49:56;;;;;;;;;;;;;;;;;;5514872;25;56799;-72
2024/04/18 06:52:21;;;;;;;;;;;;;;;;;;5513555;25;58524;-71
2024/04/18 06:54:46;;;;;;;;;;;;;;;;;;5511057;25;56810;-72
2024/04/18 06:57:11;;;;;;;;;;;;;;;;;;5515494;25;58018;-71
2024/04/18 06:59:36;;;;;;;;;;;;;;;;;;5511944;25;58715;-72
2024/04/18 07:02:01;;;;;;;;;;;;;;;;;;5516252;25;56889;-71
2024/04/18 07:04:27;;;;;;;;;;;;;;;;;;5514701;25;58892;-70
2024/04/18 07:06:52;;;;;;;;;;;;;;;;;;5513404;25;57685;-74
2024/04/18 07:09:17;;;;;;;;;;;;;;;;;;5514833;25;57313;-73
2024/04/18 07:11:42;;;;;;;;;;;;;;;;;;5512324;25;58294;-74
2024/04/18 07:14:07;;;;;;;;;;;;;;;;;;5514821;25;56828;-74
2024/04/18 07:16:32;;;;;;;;;;;;;;;;;;5513729;25;57934;-73
2024/04/18 07:18:57;;;;;;;;;;;;;;;;;;5511827;25;57632;-74
2024/04/18 07:21:22;;;;;;;;;;;;;;;;;;5513212;25;56908;-74
2024/04/18 07:23:47;;;;;;;;;;;;;;;;;;5513001;25;58038;-74
2024/04/18 07:26:13;;;;;;;;;;;;;;;;;;5513003;25;57417;-74
2024/04/18 07:28:38;;;;;;;;;;;;;;;;;;5516674;25;56981;-74
2024/04/18 07:31:03;;;;;;;;;;;;;;;;;;5515906;25;57989;-73
2024/04/18 07:33:28;;;;;;;;;;;;;;;;;;5510776;25;57052;-74
2024/04/18 07:35:53;;;;;;;;;;;;;;;;;;5514222;25;57968;-74
2024/04/18 07:38:18;;;;;;;;;;;;;;;;;;5511162;25;57541;-73
2024/04/18 07:40:43;;;;;;;;;;;;;;;;;;5512457;25;56866;-74
2024/04/18 07:43:08;;;;;;;;;;;;;;;;;;5513623;25;59013;-74
2024/04/18 07:45:35;;;;;;;;;;;;;;;;;;5512720;25;57650;-73
2024/04/18 07:48:00;;;;;;;;;;;;;;;;;;5515241;25;56811;-74
2024/04/18 07:50:25;;;;;;;;;;;;;;;;;;5511999;25;57918;-74
2024/04/18 07:52:50;;;;;;;;;;;;;;;;;;5512733;25;57802;-74
2024/04/18 07:55:15;;;;;;;;;;;;;;;;;;5514175;25;56942;-74
2024/04/18 07:57:40;;;;;;;;;;;;;;;;;;5511842;25;56821;-74
2024/04/18 08:00:05;;;;;;;;;;;;;;;;;;5515486;25;56822;-74
2024/04/18 08:02:31;;;;;;;;;;;;;;;;;;5513385;25;56905;-73
2024/04/18 08:04:56;;;;;;;;;;;;;;;;;;5514701;25;57703;-74
2024/04/18 08:07:21;;;;;;;;;;;;;;;;;;5515350;25;56828;-72
2024/04/18 08:09:46;;;;;;;;;;;;;;;;;;5514901;25;57978;-72
2024/04/18 08:12:11;;;;;;;;;;;;;;;;;;5513024;25;57655;-72
2024/04/18 08:14:37;;;;;;;;;;;;;;;;;;5514259;25;57158;-72
2024/04/18 08:17:02;;;;;;;;;;;;;;;;;;5515320;25;58634;-74
2024/04/18 08:19:27;;;;;;;;;;;;;;;;;;5513671;25;56820;-74
2024/04/18 08:21:52;;;;;;;;;;;;;;;;;;5515102;25;58212;-74
2024/04/18 08:24:27;;;;;;;;;;;;;;;;;;5513590;25;58609;-73
2024/04/18 08:26:52;;;;;;;;;;;;;;;;;;5512719;25;56988;-74
2024/04/18 08:29:22;;;;;;;;;;;;;;;;;;5516432;25;56662;-74
2024/04/18 08:31:47;;;;;;;;;;;;;;;;;;5508508;25;59623;-74
2024/04/18 08:34:12;;;;;;;;;;;;;;;;;;5513105;25;56755;-74
2024/04/18 08:36:37;;;;;;;;;;;;;;;;;;5510182;25;57865;-74
2024/04/18 08:39:02;;;;;;;;;;;;;;;;;;5514279;25;56894;-74
2024/04/18 08:41:27;;;;;;;;;;;;;;;;;;5513701;25;56943;-74
2024/04/18 08:43:52;;;;;;;;;;;;;;;;;;5515551;25;57980;-74
2024/04/18 08:46:17;;;;;;;;;;;;;;;;;;5514687;25;56697;-74
2024/04/18 08:48:42;;;;;;;;;;;;;;;;;;5513019;25;57059;-74
2024/04/18 08:51:08;;;;;;;;;;;;;;;;;;5510516;25;57917;-74
2024/04/18 08:53:33;;;;;;;;;;;;;;;;;;5510178;25;57068;-74
2024/04/18 08:55:58;;;;;;;;;;;;;;;;;;5513917;25;57704;-75
2024/04/18 08:58:23;;;;;;;;;;;;;;;;;;5515003;25;57644;-75
2024/04/18 09:00:48;;;;;;;;;;;;;;;;;;5514491;25;58330;-75
2024/04/18 09:03:13;;;;;;;;;;;;;;;;;;5512486;25;57765;-74
2024/04/18 09:05:38;;;;;;;;;;;;;;;;;;5513058;25;56767;-74
2024/04/18 09:08:04;;;;;;;;;;;;;;;;;;5514323;25;56862;-73
2024/04/18 09:10:29;;;;;;;;;;;;;;;;;;5511751;25;57543;-74
2024/04/18 09:12:54;;;;;;;;;;;;;;;;;;5513461;25;56810;-74
2024/04/18 09:15:22;;;;;;;;;;;;;;;;;;5513484;25;57138;-72
2024/04/18 09:17:47;;;;;;;;;;;;;;;;;;5478738;25;57123;-74
2024/04/18 09:20:12;;;;;;;;;;;;;;;;;;5515177;25;57091;-74
2024/04/18 09:22:37;;;;;;;;;;;;;;;;;;5510763;25;57751;-74
2024/04/18 09:25:06;;;;;;;;;;;;;;;;;;5514111;25;56883;-74
2024/04/18 09:27:31;;;;;;;;;;;;;;;;;;5512783;25;58077;-73
2024/04/18 09:29:56;;;;;;;;;;;;;;;;;;5509367;25;57676;-73
2024/04/18 09:32:22;;;;;;;;;;;;;;;;;;5512560;25;56975;-72
2024/04/18 09:34:47;;;;;;;;;;;;;;;;;;5511934;25;57938;-73
2024/04/18 09:37:12;;;;;;;;;;;;;;;;;;5510293;25;57716;-73
2024/04/18 09:39:38;;;;;;;;;;;;;;;;;;5509623;25;56872;-73
2024/04/18 09:42:03;;;;;;;;;;;;;;;;;;5512066;25;56854;-73
2024/04/18 09:44:28;;;;;;;;;;;;;;;;;;5513345;25;56796;-73
2024/04/18 09:46:53;;;;;;;;;;;;;;;;;;5512687;25;58241;-74
2024/04/18 09:49:18;;;;;;;;;;;;;;;;;;5510517;25;57621;-73
2024/04/18 09:51:43;;;;;;;;;;;;;;;;;;5510042;25;56914;-72
2024/04/18 09:54:08;;;;;;;;;;;;;;;;;;5510813;25;59069;-73
2024/04/18 09:56:33;;;;;;;;;;;;;;;;;;5511338;25;57783;-73
2024/04/18 09:58:59;;;;;;;;;;;;;;;;;;5511927;25;56443;-73
2024/04/18 10:01:24;;;;;;;;;;;;;;;;;;5513261;25;57379;-73
2024/04/18 10:03:49;;;;;;;;;;;;;;;;;;5510409;25;57729;-73
2024/04/18 10:06:14;;;;;;;;;;;;;;;;;;5509214;25;57184;-74
2024/04/18 10:08:39;;;;;;;;;;;;;;;;;;5510458;25;57617;-73
2024/04/18 10:11:05;;;;;;;;;;;;;;;;;;5513580;25;56785;-73
2024/04/18 10:13:30;;;;;;;;;;;;;;;;;;5509611;25;58046;-73
2024/04/18 10:15:55;;;;;;;;;;;;;;;;;;5512948;25;57152;-74
2024/04/18 10:18:20;;;;;;;;;;;;;;;;;;5513754;25;56778;-73
2024/04/18 10:20:45;;;;;;;;;;;;;;;;;;5516782;25;58309;-73
2024/04/18 10:23:10;;;;;;;;;;;;;;;;;;5514397;25;58870;-73
2024/04/18 10:25:35;;;;;;;;;;;;;;;;;;5509942;25;56908;-74
2024/04/18 10:28:00;;;;;;;;;;;;;;;;;;5515359;25;57466;-74
2024/04/18 10:30:25;;;;;;;;;;;;;;;;;;5512131;25;56818;-74
2024/04/18 10:32:52;;;;;;;;;;;;;;;;;;5513763;25;57224;-75
2024/04/18 10:35:17;;;;;;;;;;;;;;;;;;5514820;25;57735;-75
2024/04/18 10:37:42;;;;;;;;;;;;;;;;;;5516099;25;57003;-71
2024/04/18 10:40:08;;;;;;;;;;;;;;;;;;5513887;25;59171;-72
2024/04/18 10:42:35;;;;;;;;;;;;;;;;;;5512233;25;57571;-72
2024/04/18 10:45:00;;;;;;;;;;;;;;;;;;5513747;25;56720;-72
2024/04/18 10:47:25;;;;;;;;;;;;;;;;;;5516162;25;57787;-72
2024/04/18 10:49:50;;;;;;;;;;;;;;;;;;5514113;25;56726;-72
2024/04/18 10:52:15;;;;;;;;;;;;;;;;;;5518454;25;58877;-73
2024/04/18 10:54:40;;;;;;;;;;;;;;;;;;5513825;25;56918;-71
2024/04/18 10:57:05;;;;;;;;;;;;;;;;;;5484576;25;56831;-72
2024/04/18 10:59:30;;;;;;;;;;;;;;;;;;5515432;25;58320;-72
2024/04/18 11:01:55;;;;;;;;;;;;;;;;;;5512718;25;56785;-72
2024/04/18 11:04:21;;;;;;;;;;;;;;;;;;5513382;25;56914;-72
2024/04/18 11:06:46;;;;;;;;;;;;;;;;;;5514562;25;57906;-74
2024/04/18 11:09:15;;;;;;;;;;;;;;;;;;5512691;25;56822;-74
2024/04/18 11:11:40;;;;;;;;;;;;;;;;;;5514218;25;58314;-74
2024/04/18 11:14:05;;;;;;;;;;;;;;;;;;5514252;25;57547;-75
2024/04/18 11:16:30;;;;;;;;;;;;;;;;;;5515378;25;56739;-76
2024/04/18 11:18:55;;;;;;;;;;;;;;;;;;5514786;25;58498;-75
2024/04/18 11:21:20;;;;;;;;;;;;;;;;;;5516065;25;57508;-75
2024/04/18 11:23:46;;;;;;;;;;;;;;;;;;5510720;25;56770;-75
2024/04/18 11:26:11;;;;;;;;;;;;;;;;;;5515885;25;58202;-75
2024/04/18 11:28:36;;;;;;;;;;;;;;;;;;5513310;25;58660;-75
2024/04/18 11:31:01;;;;;;;;;;;;;;;;;;5515236;25;58235;-75
2024/04/18 11:33:26;;;;;;;;;;;;;;;;;;5513705;25;56977;-75
2024/04/18 11:35:51;;;;;;;;;;;;;;;;;;5514643;25;56882;-75
2024/04/18 11:38:16;;;;;;;;;;;;;;;;;;5513067;25;58008;-75
2024/04/18 11:40:42;;;;;;;;;;;;;;;;;;5514787;25;58498;-75
2024/04/18 11:43:07;;;;;;;;;;;;;;;;;;5514851;25;56899;-75
2024/04/18 11:45:32;;;;;;;;;;;;;;;;;;5513583;25;58003;-76
2024/04/18 11:47:57;;;;;;;;;;;;;;;;;;5514819;25;57828;-76
2024/04/18 11:50:22;;;;;;;;;;;;;;;;;;5515327;25;56861;-76
2024/04/18 11:52:47;;;;;;;;;;;;;;;;;;5511923;25;58409;-74
2024/04/18 11:55:12;;;;;;;;;;;;;;;;;;5513833;25;56798;-76
2024/04/18 11:57:37;;;;;;;;;;;;;;;;;;5515078;25;58029;-75
2024/04/18 12:00:02;;;;;;;;;;;;;;;;;;5513900;25;57607;-75
2024/04/18 12:02:27;;;;;;;;;;;;;;;;;;5512840;25;56760;-75
2024/04/18 12:04:52;;;;;;;;;;;;;;;;;;5513501;25;58474;-75
2024/04/18 12:07:17;;;;;;;;;;;;;;;;;;5512190;25;57736;-75
2024/04/18 12:09:45;;;;;;;;;;;;;;;;;;5513904;25;56812;-75
2024/04/18 12:12:10;;;;;;;;;;;;;;;;;;5508495;25;57996;-75
2024/04/18 12:14:35;;;;;;;;;;;;;;;;;;5514797;25;56885;-76
2024/04/18 12:17:00;;;;;;;;;;;;;;;;;;5514646;25;57886;-75
2024/04/18 12:19:25;;;;;;;;;;;;;;;;;;5511590;25;58880;-77
2024/04/18 12:21:50;;;;;;;;;;;;;;;;;;5513268;25;56722;-76
2024/04/18 12:24:15;;;;;;;;;;;;;;;;;;5514762;25;57741;-77
2024/04/18 12:26:41;;;;;;;;;;;;;;;;;;5511047;25;57627;-76
2024/04/18 12:29:06;;;;;;;;;;;;;;;;;;5516998;25;56731;-76
2024/04/18 12:31:31;;;;;;;;;;;;;;;;;;5511939;25;58065;-76
2024/04/18 12:33:56;;;;;;;;;;;;;;;;;;5513287;25;56858;-76
2024/04/18 12:36:22;;;;;;;;;;;;;;;;;;5516614;25;58149;-76
2024/04/18 12:38:47;;;;;;;;;;;;;;;;;;5513283;25;58491;-76
2024/04/18 12:41:12;;;;;;;;;;;;;;;;;;5514336;25;56961;-76
2024/04/18 12:43:37;;;;;;;;;;;;;;;;;;5515019;25;57345;-76
2024/04/18 12:46:03;;;;;;;;;;;;;;;;;;5509301;25;58615;-75
2024/04/18 12:48:28;;;;;;;;;;;;;;;;;;5512793;25;56791;-75
2024/04/18 12:50:53;;;;;;;;;;;;;;;;;;5511146;25;58972;-75
2024/04/18 12:53:18;;;;;;;;;;;;;;;;;;5509958;25;57747;-74
2024/04/18 12:55:43;;;;;;;;;;;;;;;;;;5511532;25;57505;-75
2024/04/18 12:58:08;;;;;;;;;;;;;;;;;;5511022;25;57752;-75
2024/04/18 13:00:33;;;;;;;;;;;;;;;;;;5510074;25;56804;-75
2024/04/18 13:02:58;;;;;;;;;;;;;;;;;;5509967;25;58850;-74
2024/04/18 13:05:23;;;;;;;;;;;;;;;;;;5509682;25;56953;-75
2024/04/18 13:07:48;;;;;;;;;;;;;;;;;;5510593;25;56826;-75
2024/04/18 13:10:14;;;;;;;;;;;;;;;;;;5510968;25;57914;-74
2024/04/18 13:12:39;;;;;;;;;;;;;;;;;;5508749;25;57488;-74
2024/04/18 13:15:04;;;;;;;;;;;;;;;;;;5512827;25;56839;-75
2024/04/18 13:17:29;;;;;;;;;;;;;;;;;;5510455;25;58330;-75
2024/04/18 13:19:54;;;;;;;;;;;;;;;;;;5509895;25;56945;-74
2024/04/18 13:22:19;;;;;;;;;;;;;;;;;;5512541;25;59147;-75
2024/04/18 13:24:44;;;;;;;;;;;;;;;;;;5510720;25;57917;-75
2024/04/18 13:27:09;;;;;;;;;;;;;;;;;;5513748;25;56849;-75
2024/04/18 13:29:34;;;;;;;;;;;;;;;;;;5513757;25;56954;-75
2024/04/18 13:31:59;;;;;;;;;;;;;;;;;;5509239;25;56958;-75
2024/04/18 13:34:24;;;;;;;;;;;;;;;;;;5513011;25;56872;-74
2024/04/18 13:36:49;;;;;;;;;;;;;;;;;;5511655;25;58261;-75
2024/04/18 13:39:15;;;;;;;;;;;;;;;;;;5512886;25;56885;-74
2024/04/18 13:41:43;;;;;;;;;;;;;;;;;;5512809;25;58020;-75
2024/04/18 13:44:08;;;;;;;;;;;;;;;;;;5511132;25;57927;-75
2024/04/18 13:46:33;;;;;;;;;;;;;;;;;;5511149;25;56831;-76
2024/04/18 13:48:58;;;;;;;;;;;;;;;;;;5510632;25;57140;-75
2024/04/18 13:51:23;;;;;;;;;;;;;;;;;;5506689;25;59619;-74
2024/04/18 13:53:50;;;;;;;;;;;;;;;;;;5510221;25;57058;-74
2024/04/18 13:56:15;;;;;;;;;;;;;;;;;;5515943;25;59024;-73
2024/04/18 13:58:40;;;;;;;;;;;;;;;;;;5516189;25;56765;-73
2024/04/18 14:01:05;;;;;;;;;;;;;;;;;;5510320;25;58365;-73
2024/04/18 14:03:30;;;;;;;;;;;;;;;;;;5516397;25;57465;-73
2024/04/18 14:05:55;;;;;;;;;;;;;;;;;;5516711;25;56817;-74
2024/04/18 14:08:21;;;;;;;;;;;;;;;;;;5513774;25;57980;-73
2024/04/18 14:10:46;;;;;;;;;;;;;;;;;;5513142;25;57670;-73
2024/04/18 14:13:11;;;;;;;;;;;;;;;;;;5516002;25;56922;-72
2024/04/18 14:15:36;;;;;;;;;;;;;;;;;;5477789;25;58972;-72
2024/04/18 14:20:46;;;;;;;;;;;;;;;;;;5510955;25;56794;-73
2024/04/18 14:23:11;;;;;;;;;;;;;;;;;;5511804;25;59482;-72
2024/04/18 14:25:36;;;;;;;;;;;;;;;;;;5511611;25;56889;-72
2024/04/18 14:28:01;;;;;;;;;;;;;;;;;;5511382;25;57959;-74
2024/04/18 14:30:26;;;;;;;;;;;;;;;;;;5510290;25;58657;-73
2024/04/18 14:32:51;;;;;;;;;;;;;;;;;;5514816;25;56916;-73
2024/04/18 14:35:16;;;;;;;;;;;;;;;;;;5514881;25;57792;-73
2024/04/18 14:37:41;;;;;;;;;;;;;;;;;;5513833;25;58968;-72
2024/04/18 14:40:06;;;;;;;;;;;;;;;;;;5515129;25;56869;-72
2024/04/18 14:42:32;;;;;;;;;;;;;;;;;;5513553;25;57633;-74
2024/04/18 14:44:57;;;;;;;;;;;;;;;;;;5515180;25;56991;-73
2024/04/18 14:47:22;;;;;;;;;;;;;;;;;;5516783;25;57909;-72
2024/04/18 14:49:47;;;;;;;;;;;;;;;;;;5515251;25;57630;-72
2024/04/18 14:52:12;;;;;;;;;;;;;;;;;;5516163;25;56976;-71
2024/04/18 14:54:37;;;;;;;;;;;;;;;;;;5514393;25;57998;-71
2024/04/18 14:57:03;;;;;;;;;;;;;;;;;;5513649;25;57674;-76
2024/04/18 14:59:28;;;;;;;;;;;;;;;;;;5512486;25;56698;-71
2024/04/18 15:01:53;;;;;;;;;;;;;;;;;;5510718;25;58132;-73
2024/04/18 15:04:18;;;;;;;;;;;;;;;;;;5512832;25;56759;-72
2024/04/18 15:06:43;;;;;;;;;;;;;;;;;;5511487;25;58297;-72
2024/04/18 15:09:08;;;;;;;;;;;;;;;;;;5508824;25;58386;-72
2024/04/18 15:11:33;;;;;;;;;;;;;;;;;;5513264;25;56857;-72
2024/04/18 15:13:58;;;;;;;;;;;;;;;;;;5513429;25;57903;-72
2024/04/18 15:16:23;;;;;;;;;;;;;;;;;;5511389;25;57813;-72
2024/04/18 15:18:48;;;;;;;;;;;;;;;;;;5514256;25;57197;-71
2024/04/18 15:21:15;;;;;;;;;;;;;;;;;;5514298;25;57999;-71
2024/04/18 15:23:40;;;;;;;;;;;;;;;;;;5510985;25;57617;-73
2024/04/18 15:26:05;;;;;;;;;;;;;;;;;;5511150;25;56998;-75
2024/04/18 15:28:30;;;;;;;;;;;;;;;;;;5504464;25;59008;-75
2024/04/18 15:30:55;;;;;;;;;;;;;;;;;;5511558;25;56954;-74
2024/04/18 15:33:20;;;;;;;;;;;;;;;;;;5513001;25;57951;-74
2024/04/18 15:35:46;;;;;;;;;;;;;;;;;;5513513;25;58685;-76
2024/04/18 15:38:11;;;;;;;;;;;;;;;;;;5512545;25;57067;-76
2024/04/18 15:40:36;;;;;;;;;;;;;;;;;;5510207;25;58101;-73
2024/04/18 15:43:01;;;;;;;;;;;;;;;;;;5514000;25;57337;-75
2024/04/18 15:45:26;;;;;;;;;;;;;;;;;;5515464;25;56974;-74
2024/04/18 15:47:51;;;;;;;;;;;;;;;;;;5510252;25;57826;-75
2024/04/18 15:50:16;;;;;;;;;;;;;;;;;;5514266;25;57072;-77
2024/04/18 15:52:41;;;;;;;;;;;;;;;;;;5508000;25;57856;-75
2024/04/18 15:55:06;;;;;;;;;;;;;;;;;;5508383;25;57704;-74
2024/04/18 15:57:31;;;;;;;;;;;;;;;;;;5509539;25;57148;-75
2024/04/18 15:59:57;;;;;;;;;;;;;;;;;;5510944;25;58187;-75
2024/04/18 16:02:22;;;;;;;;;;;;;;;;;;5509999;25;58021;-75
2024/04/18 16:04:47;;;;;;;;;;;;;;;;;;5511966;25;56827;-75
2024/04/18 16:07:12;;;;;;;;;;;;;;;;;;5504995;25;58058;-75
2024/04/18 16:09:37;;;;;;;;;;;;;;;;;;5511028;25;56839;-76
2024/04/18 16:12:02;;;;;;;;;;;;;;;;;;5507732;25;59178;-75
2024/04/18 16:14:27;;;;;;;;;;;;;;;;;;5512768;25;56827;-74
2024/04/18 16:16:52;;;;;;;;;;;;;;;;;;5508659;25;56793;-73
2024/04/18 16:19:17;;;;;;;;;;;;;;;;;;5514978;25;58203;-75
2024/04/18 16:21:42;;;;;;;;;;;;;;;;;;5512510;25;58373;-76
2024/04/18 16:24:07;;;;;;;;;;;;;;;;;;5514307;25;56772;-77
2024/04/18 16:26:33;;;;;;;;;;;;;;;;;;5511253;25;58814;-76
2024/04/18 16:28:58;;;;;;;;;;;;;;;;;;5509635;25;56888;-75
2024/04/18 16:31:23;;;;;;;;;;;;;;;;;;5514417;25;58025;-76
2024/04/18 16:33:48;;;;;;;;;;;;;;;;;;5511746;25;57496;-75
2024/04/18 16:36:13;;;;;;;;;;;;;;;;;;5515071;25;57006;-75